This is the latest recevied weather packets stored in our database for station/object DJ2KUA-6. If no packets are shown the sender has not sent any weather packets the latest 10 day(s).
| Time | Temp. | Humidity | Pressure | Rain* | Wind** | Luminosity | Snow |
|---|---|---|---|---|---|---|---|
| 1788439320 | 27.78° C | 42% | 1073 hPa | 0 mm | - | - | - |
| 1788438177 | 27.22° C | 42% | 1073 hPa | 0 mm | - | - | - |
| 1788437037 | 27.22° C | 41% | 1073 hPa | 0 mm | - | - | - |
| 1788435897 | 28.89° C | 40% | 1073 hPa | 0 mm | - | - | - |
| 1788434757 | 28.33° C | 44% | 1073 hPa | 0 mm | - | - | - |
| 1788433616 | 27.78° C | 45% | 1073 hPa | 0 mm | - | - | - |
| 1788432475 | 26.67° C | 46% | 1074 hPa | 0 mm | - | - | - |
| 1788431336 | 26.11° C | 48% | 1074 hPa | 0 mm | - | - | - |
| 1788430197 | 25.56° C | 49% | 1074 hPa | 0 mm | - | - | - |
| 1788429056 | 26.11° C | 49% | 1074 hPa | 0 mm | - | - | - |
| 1788427918 | 26.11° C | 51% | 1074 hPa | 0 mm | - | - | - |
| 1788426777 | 24.44° C | 55% | 1074 hPa | 0 mm | - | - | - |
| 1788425637 | 22.78° C | 59% | 1074 hPa | 0 mm | - | - | - |
| 1788424496 | 22.22° C | 61% | 1075 hPa | 0 mm | - | - | - |
| 1788423357 | 21.67° C | 63% | 1075 hPa | 0 mm | - | - | - |
| 1788422216 | 21.11° C | 66% | 1074 hPa | 0 mm | - | - | - |
| 1788419937 | 20° C | 69% | 1075 hPa | 0 mm | - | - | - |
| 1788418796 | 18.33° C | 73% | 1075 hPa | 0 mm | - | - | - |
| 1788417656 | 17.78° C | 75% | 1075 hPa | 0 mm | - | - | - |
| 1788416519 | 17.22° C | 78% | 1074 hPa | 0 mm | - | - | - |
| 1788415376 | 16.67° C | 81% | 1074 hPa | 0 mm | - | - | - |
| 1788414236 | 15° C | 83% | 1074 hPa | 0 mm | - | - | - |
| 1788413096 | 14.44° C | 83% | 1074 hPa | 0 mm | - | - | - |
| 1788411956 | 13.89° C | 82% | 1074 hPa | 0 mm | - | - | - |
| 1788410816 | 13.89° C | 82% | 1074 hPa | 0 mm | - | - | - |
* Rain latest hour (hover to see other rain measurements)
** Current wind speed in m/s (hover to see current wind gust speed)